sensor_id;sensor_type;location;lat;lon;timestamp;pressure;altitude;pressure_sealevel;temperature;humidity
43770;BME280;6597;52.218;9.882;2023-05-20T00:00:06;101711.34;;;11.30;78.25
43770;BME280;6597;52.218;9.882;2023-05-20T00:02:35;101713.31;;;11.20;78.92
43770;BME280;6597;52.218;9.882;2023-05-20T00:05:01;101702.88;;;11.17;78.88
43770;BME280;6597;52.218;9.882;2023-05-20T00:07:28;101708.09;;;11.19;78.57
43770;BME280;6597;52.218;9.882;2023-05-20T00:09:55;101703.78;;;11.16;78.96
43770;BME280;6597;52.218;9.882;2023-05-20T00:12:21;101700.34;;;11.13;79.23
43770;BME280;6597;52.218;9.882;2023-05-20T00:14:48;101710.91;;;11.11;79.31
43770;BME280;6597;52.218;9.882;2023-05-20T00:17:14;101707.53;;;11.06;79.86
43770;BME280;6597;52.218;9.882;2023-05-20T00:19:43;101713.75;;;11.01;80.00
43770;BME280;6597;52.218;9.882;2023-05-20T00:22:09;101705.13;;;10.94;80.48
43770;BME280;6597;52.218;9.882;2023-05-20T00:24:36;101710.50;;;10.89;80.83
43770;BME280;6597;52.218;9.882;2023-05-20T00:27:03;101704.41;;;10.87;80.80
43770;BME280;6597;52.218;9.882;2023-05-20T00:29:29;101703.44;;;10.91;80.33
43770;BME280;6597;52.218;9.882;2023-05-20T00:31:56;101704.34;;;10.90;80.46
43770;BME280;6597;52.218;9.882;2023-05-20T00:34:22;101709.63;;;10.89;80.32
43770;BME280;6597;52.218;9.882;2023-05-20T00:36:50;101699.94;;;10.91;80.18
43770;BME280;6597;52.218;9.882;2023-05-20T00:39:17;101694.81;;;10.86;80.35
43770;BME280;6597;52.218;9.882;2023-05-20T00:41:43;101681.81;;;10.80;81.24
43770;BME280;6597;52.218;9.882;2023-05-20T00:44:10;101682.78;;;10.76;80.95
43770;BME280;6597;52.218;9.882;2023-05-20T00:46:37;101685.53;;;10.69;81.41
43770;BME280;6597;52.218;9.882;2023-05-20T00:49:03;101689.06;;;10.68;81.33
43770;BME280;6597;52.218;9.882;2023-05-20T00:51:31;101690.06;;;10.62;81.88
43770;BME280;6597;52.218;9.882;2023-05-20T00:53:59;101682.28;;;10.57;81.72
43770;BME280;6597;52.218;9.882;2023-05-20T00:56:25;101685.84;;;10.53;82.50
43770;BME280;6597;52.218;9.882;2023-05-20T00:58:52;101685.03;;;10.51;82.53
43770;BME280;6597;52.218;9.882;2023-05-20T01:01:19;101699.06;;;10.49;82.84
43770;BME280;6597;52.218;9.882;2023-05-20T01:03:45;101699.19;;;10.44;83.24
43770;BME280;6597;52.218;9.882;2023-05-20T01:06:13;101686.13;;;10.41;83.42
43770;BME280;6597;52.218;9.882;2023-05-20T01:08:39;101685.19;;;10.44;83.92
43770;BME280;6597;52.218;9.882;2023-05-20T01:11:11;101686.88;;;10.46;83.62
43770;BME280;6597;52.218;9.882;2023-05-20T01:13:43;101682.47;;;10.48;83.58
43770;BME280;6597;52.218;9.882;2023-05-20T01:16:12;101684.16;;;10.51;84.10
43770;BME280;6597;52.218;9.882;2023-05-20T01:18:40;101678.03;;;10.50;83.96
43770;BME280;6597;52.218;9.882;2023-05-20T01:21:10;101689.50;;;10.46;84.93
43770;BME280;6597;52.218;9.882;2023-05-20T01:23:39;101681.66;;;10.45;85.45
43770;BME280;6597;52.218;9.882;2023-05-20T01:26:08;101683.47;;;10.43;85.22
43770;BME280;6597;52.218;9.882;2023-05-20T01:28:35;101680.75;;;10.46;84.94
43770;BME280;6597;52.218;9.882;2023-05-20T01:31:05;101678.00;;;10.52;84.84
43770;BME280;6597;52.218;9.882;2023-05-20T01:33:34;101677.97;;;10.53;85.09
43770;BME280;6597;52.218;9.882;2023-05-20T01:36:01;101685.00;;;10.53;84.96
43770;BME280;6597;52.218;9.882;2023-05-20T01:38:28;101678.94;;;10.49;84.61
43770;BME280;6597;52.218;9.882;2023-05-20T01:40:58;101676.47;;;10.42;84.92
43770;BME280;6597;52.218;9.882;2023-05-20T01:43:25;101669.56;;;10.36;85.02
43770;BME280;6597;52.218;9.882;2023-05-20T01:45:52;101674.94;;;10.30;85.80
43770;BME280;6597;52.218;9.882;2023-05-20T01:48:20;101675.84;;;10.29;85.72
43770;BME280;6597;52.218;9.882;2023-05-20T01:50:46;101667.06;;;10.30;85.35
43770;BME280;6597;52.218;9.882;2023-05-20T01:53:13;101661.84;;;10.28;85.43
43770;BME280;6597;52.218;9.882;2023-05-20T01:55:40;101670.59;;;10.29;85.56
43770;BME280;6597;52.218;9.882;2023-05-20T01:58:08;101662.78;;;10.26;85.52
43770;BME280;6597;52.218;9.882;2023-05-20T02:00:35;101660.25;;;10.20;85.81
43770;BME280;6597;52.218;9.882;2023-05-20T02:03:02;101659.47;;;10.15;85.76
43770;BME280;6597;52.218;9.882;2023-05-20T02:05:29;101671.78;;;10.11;85.91
43770;BME280;6597;52.218;9.882;2023-05-20T02:07:56;101664.84;;;10.07;86.57
43770;BME280;6597;52.218;9.882;2023-05-20T02:10:23;101661.38;;;10.05;86.90
43770;BME280;6597;52.218;9.882;2023-05-20T02:12:49;101661.44;;;10.02;86.98
43770;BME280;6597;52.218;9.882;2023-05-20T02:15:17;101657.09;;;9.99;87.98
43770;BME280;6597;52.218;9.882;2023-05-20T02:17:45;101660.53;;;10.03;87.77
43770;BME280;6597;52.218;9.882;2023-05-20T02:20:13;101665.69;;;10.09;87.52
43770;BME280;6597;52.218;9.882;2023-05-20T02:22:39;101666.56;;;10.10;88.35
43770;BME280;6597;52.218;9.882;2023-05-20T02:25:07;101664.75;;;10.13;88.29
43770;BME280;6597;52.218;9.882;2023-05-20T02:27:33;101666.47;;;10.14;88.54
43770;BME280;6597;52.218;9.882;2023-05-20T02:30:00;101671.72;;;10.14;88.95
43770;BME280;6597;52.218;9.882;2023-05-20T02:32:28;101670.75;;;10.18;89.22
43770;BME280;6597;52.218;9.882;2023-05-20T02:34:55;101669.00;;;10.20;89.00
43770;BME280;6597;52.218;9.882;2023-05-20T02:37:22;101666.31;;;10.23;89.23
43770;BME280;6597;52.218;9.882;2023-05-20T02:39:48;101662.84;;;10.23;89.02
43770;BME280;6597;52.218;9.882;2023-05-20T02:42:15;101665.41;;;10.26;89.88
43770;BME280;6597;52.218;9.882;2023-05-20T02:44:42;101661.00;;;10.26;89.20
43770;BME280;6597;52.218;9.882;2023-05-20T02:47:09;101666.19;;;10.29;89.22
43770;BME280;6597;52.218;9.882;2023-05-20T02:49:36;101662.63;;;10.34;88.37
43770;BME280;6597;52.218;9.882;2023-05-20T02:52:04;101665.16;;;10.38;87.96
43770;BME280;6597;52.218;9.882;2023-05-20T02:54:30;101669.34;;;10.48;87.11
43770;BME280;6597;52.218;9.882;2023-05-20T02:56:57;101666.69;;;10.50;87.03
43770;BME280;6597;52.218;9.882;2023-05-20T02:59:23;101657.00;;;10.52;87.07
43770;BME280;6597;52.218;9.882;2023-05-20T03:01:50;101660.53;;;10.51;87.59
43770;BME280;6597;52.218;9.882;2023-05-20T03:04:17;101671.88;;;10.53;87.30
43770;BME280;6597;52.218;9.882;2023-05-20T03:06:47;101666.59;;;10.54;87.47
43770;BME280;6597;52.218;9.882;2023-05-20T03:09:16;101669.16;;;10.57;86.73
43770;BME280;6597;52.218;9.882;2023-05-20T03:11:43;101663.94;;;10.56;86.57
43770;BME280;6597;52.218;9.882;2023-05-20T03:14:10;101662.97;;;10.60;86.73
43770;BME280;6597;52.218;9.882;2023-05-20T03:16:37;101658.50;;;10.64;85.87
43770;BME280;6597;52.218;9.882;2023-05-20T03:19:03;101658.47;;;10.65;86.08
43770;BME280;6597;52.218;9.882;2023-05-20T03:21:30;101664.56;;;10.67;86.17
43770;BME280;6597;52.218;9.882;2023-05-20T03:23:58;101659.28;;;10.69;85.75
43770;BME280;6597;52.218;9.882;2023-05-20T03:26:24;101662.75;;;10.69;86.01
43770;BME280;6597;52.218;9.882;2023-05-20T03:28:52;101664.56;;;10.67;85.98
43770;BME280;6597;52.218;9.882;2023-05-20T03:31:18;101661.03;;;10.68;86.67
43770;BME280;6597;52.218;9.882;2023-05-20T03:33:45;101661.88;;;10.70;86.26
43770;BME280;6597;52.218;9.882;2023-05-20T03:36:11;101653.16;;;10.68;86.53
43770;BME280;6597;52.218;9.882;2023-05-20T03:38:38;101659.31;;;10.67;86.52
43770;BME280;6597;52.218;9.882;2023-05-20T03:41:06;101657.53;;;10.68;86.48
43770;BME280;6597;52.218;9.882;2023-05-20T03:43:32;101660.94;;;10.73;86.57
43770;BME280;6597;52.218;9.882;2023-05-20T03:45:59;101665.31;;;10.72;86.60
43770;BME280;6597;52.218;9.882;2023-05-20T03:48:27;101665.34;;;10.71;86.93
43770;BME280;6597;52.218;9.882;2023-05-20T03:50:53;101666.25;;;10.70;87.50
43770;BME280;6597;52.218;9.882;2023-05-20T03:53:20;101676.75;;;10.70;87.29
43770;BME280;6597;52.218;9.882;2023-05-20T03:55:46;101671.50;;;10.70;87.13
43770;BME280;6597;52.218;9.882;2023-05-20T03:58:14;101664.53;;;10.69;87.39
43770;BME280;6597;52.218;9.882;2023-05-20T04:00:41;101672.44;;;10.67;86.79
43770;BME280;6597;52.218;9.882;2023-05-20T04:03:08;101678.44;;;10.74;86.26
43770;BME280;6597;52.218;9.882;2023-05-20T04:05:35;101674.06;;;10.74;85.48
43770;BME280;6597;52.218;9.882;2023-05-20T04:08:06;101674.00;;;10.77;86.25
43770;BME280;6597;52.218;9.882;2023-05-20T04:10:34;101674.84;;;10.78;85.70
43770;BME280;6597;52.218;9.882;2023-05-20T04:13:01;101674.00;;;10.77;84.71
43770;BME280;6597;52.218;9.882;2023-05-20T04:15:29;101672.31;;;10.75;83.72
43770;BME280;6597;52.218;9.882;2023-05-20T04:17:57;101671.34;;;10.79;83.47
43770;BME280;6597;52.218;9.882;2023-05-20T04:20:25;101675.66;;;10.81;83.51
43770;BME280;6597;52.218;9.882;2023-05-20T04:22:55;101674.78;;;10.81;84.22
43770;BME280;6597;52.218;9.882;2023-05-20T04:25:21;101663.31;;;10.85;83.46
43770;BME280;6597;52.218;9.882;2023-05-20T04:27:48;101657.16;;;10.86;83.07
43770;BME280;6597;52.218;9.882;2023-05-20T04:30:15;101666.69;;;10.90;83.73
43770;BME280;6597;52.218;9.882;2023-05-20T04:32:44;101663.97;;;10.95;83.80
43770;BME280;6597;52.218;9.882;2023-05-20T04:35:13;101659.50;;;10.98;83.29
43770;BME280;6597;52.218;9.882;2023-05-20T04:37:42;101664.88;;;10.94;83.83
43770;BME280;6597;52.218;9.882;2023-05-20T04:40:12;101654.31;;;10.95;83.64
43770;BME280;6597;52.218;9.882;2023-05-20T04:42:40;101648.00;;;11.04;83.56
43770;BME280;6597;52.218;9.882;2023-05-20T04:45:09;101647.88;;;11.10;83.13
43770;BME280;6597;52.218;9.882;2023-05-20T04:47:37;101641.72;;;11.11;83.66
43770;BME280;6597;52.218;9.882;2023-05-20T04:50:07;101642.59;;;11.11;83.70
43770;BME280;6597;52.218;9.882;2023-05-20T04:52:35;101641.84;;;11.05;83.12
43770;BME280;6597;52.218;9.882;2023-05-20T04:55:01;101645.25;;;11.10;83.62
43770;BME280;6597;52.218;9.882;2023-05-20T04:57:28;101645.03;;;11.19;82.75
43770;BME280;6597;52.218;9.882;2023-05-20T04:59:55;101643.22;;;11.21;82.47
43770;BME280;6597;52.218;9.882;2023-05-20T05:02:23;101647.47;;;11.27;81.91
43770;BME280;6597;52.218;9.882;2023-05-20T05:04:50;101652.72;;;11.27;81.94
43770;BME280;6597;52.218;9.882;2023-05-20T05:07:18;101648.22;;;11.32;83.11
43770;BME280;6597;52.218;9.882;2023-05-20T05:09:45;101659.56;;;11.34;84.41
43770;BME280;6597;52.218;9.882;2023-05-20T05:12:11;101648.91;;;11.40;84.27
43770;BME280;6597;52.218;9.882;2023-05-20T05:14:38;101651.59;;;11.38;83.15
43770;BME280;6597;52.218;9.882;2023-05-20T05:17:04;101646.34;;;11.38;83.42
43770;BME280;6597;52.218;9.882;2023-05-20T05:19:31;101646.34;;;11.38;83.94
43770;BME280;6597;52.218;9.882;2023-05-20T05:21:57;101649.78;;;11.40;84.40
43770;BME280;6597;52.218;9.882;2023-05-20T05:24:25;101644.41;;;11.45;84.00
43770;BME280;6597;52.218;9.882;2023-05-20T05:26:52;101653.88;;;11.52;84.03
43770;BME280;6597;52.218;9.882;2023-05-20T05:29:19;101659.91;;;11.56;83.98
43770;BME280;6597;52.218;9.882;2023-05-20T05:31:46;101648.28;;;11.64;83.95
43770;BME280;6597;52.218;9.882;2023-05-20T05:34:13;101650.88;;;11.66;83.62
43770;BME280;6597;52.218;9.882;2023-05-20T05:36:39;101643.84;;;11.66;83.20
43770;BME280;6597;52.218;9.882;2023-05-20T05:39:06;101651.66;;;11.71;83.53
43770;BME280;6597;52.218;9.882;2023-05-20T05:41:35;101643.69;;;11.74;83.17
43770;BME280;6597;52.218;9.882;2023-05-20T05:44:03;101648.13;;;11.72;82.76
43770;BME280;6597;52.218;9.882;2023-05-20T05:46:30;101644.59;;;11.73;83.83
43770;BME280;6597;52.218;9.882;2023-05-20T05:48:57;101642.72;;;11.78;83.65
43770;BME280;6597;52.218;9.882;2023-05-20T05:51:25;101647.91;;;11.81;83.75
43770;BME280;6597;52.218;9.882;2023-05-20T05:53:53;101637.34;;;11.82;83.19
43770;BME280;6597;52.218;9.882;2023-05-20T05:56:19;101647.00;;;11.82;83.69
43770;BME280;6597;52.218;9.882;2023-05-20T05:58:48;101639.00;;;11.87;83.07
43770;BME280;6597;52.218;9.882;2023-05-20T06:01:15;101645.03;;;11.90;84.08
43770;BME280;6597;52.218;9.882;2023-05-20T06:03:42;101644.88;;;11.96;83.50
43770;BME280;6597;52.218;9.882;2023-05-20T06:06:08;101639.56;;;11.98;83.53
43770;BME280;6597;52.218;9.882;2023-05-20T06:08:35;101637.66;;;12.04;84.14
43770;BME280;6597;52.218;9.882;2023-05-20T06:11:02;101639.97;;;12.15;83.55
43770;BME280;6597;52.218;9.882;2023-05-20T06:13:29;101644.22;;;12.21;83.39
43770;BME280;6597;52.218;9.882;2023-05-20T06:15:57;101643.25;;;12.23;82.86
43770;BME280;6597;52.218;9.882;2023-05-20T06:18:24;101650.03;;;12.32;83.60
43770;BME280;6597;52.218;9.882;2023-05-20T06:20:55;101648.03;;;12.41;83.51
43770;BME280;6597;52.218;9.882;2023-05-20T06:23:23;101644.97;;;12.55;82.39
43770;BME280;6597;52.218;9.882;2023-05-20T06:25:56;101641.78;;;12.75;82.86
43770;BME280;6597;52.218;9.882;2023-05-20T06:28:26;101645.59;;;12.93;81.58
43770;BME280;6597;52.218;9.882;2023-05-20T06:30:53;101639.00;;;13.07;81.69
43770;BME280;6597;52.218;9.882;2023-05-20T06:33:21;101647.53;;;13.16;79.62
43770;BME280;6597;52.218;9.882;2023-05-20T06:35:50;101649.19;;;13.20;80.25
43770;BME280;6597;52.218;9.882;2023-05-20T06:38:17;101649.09;;;13.23;80.79
43770;BME280;6597;52.218;9.882;2023-05-20T06:40:44;101643.72;;;13.26;80.55
43770;BME280;6597;52.218;9.882;2023-05-20T06:43:11;101634.78;;;13.30;80.00
43770;BME280;6597;52.218;9.882;2023-05-20T06:45:46;101637.38;;;13.31;79.29
43770;BME280;6597;52.218;9.882;2023-05-20T06:48:32;101634.69;;;13.34;80.56
43770;BME280;6597;52.218;9.882;2023-05-20T06:50:59;101632.53;;;13.46;80.79
43770;BME280;6597;52.218;9.882;2023-05-20T06:53:26;101632.47;;;13.47;78.52
43770;BME280;6597;52.218;9.882;2023-05-20T06:55:52;101627.47;;;13.39;79.81
43770;BME280;6597;52.218;9.882;2023-05-20T06:58:20;101632.22;;;13.28;79.29
43770;BME280;6597;52.218;9.882;2023-05-20T07:00:46;101630.53;;;13.26;79.95
43770;BME280;6597;52.218;9.882;2023-05-20T07:03:14;101627.00;;;13.27;80.14
43770;BME280;6597;52.218;9.882;2023-05-20T07:05:42;101626.19;;;13.25;80.07
43770;BME280;6597;52.218;9.882;2023-05-20T07:08:10;101618.53;;;13.16;80.95
43770;BME280;6597;52.218;9.882;2023-05-20T07:10:36;101623.16;;;13.09;81.18
43770;BME280;6597;52.218;9.882;2023-05-20T07:13:03;101619.81;;;13.04;81.24
43770;BME280;6597;52.218;9.882;2023-05-20T07:15:30;101621.06;;;12.91;80.08
43770;BME280;6597;52.218;9.882;2023-05-20T07:17:57;101609.91;;;12.83;81.56
43770;BME280;6597;52.218;9.882;2023-05-20T07:20:24;101604.53;;;12.86;82.89
43770;BME280;6597;52.218;9.882;2023-05-20T07:22:52;101612.16;;;12.95;83.25
43770;BME280;6597;52.218;9.882;2023-05-20T07:25:37;101609.38;;;12.99;82.95
43770;BME280;6597;52.218;9.882;2023-05-20T07:28:04;101604.75;;;13.07;83.39
43770;BME280;6597;52.218;9.882;2023-05-20T07:30:31;101603.63;;;13.15;83.10
43770;BME280;6597;52.218;9.882;2023-05-20T07:33:24;101601.44;;;13.29;82.46
43770;BME280;6597;52.218;9.882;2023-05-20T07:35:50;101594.16;;;13.37;81.92
43770;BME280;6597;52.218;9.882;2023-05-20T07:38:20;101592.75;;;13.52;81.30
43770;BME280;6597;52.218;9.882;2023-05-20T07:40:54;101603.63;;;13.69;81.74
43770;BME280;6597;52.218;9.882;2023-05-20T07:43:20;101597.69;;;13.87;80.33
43770;BME280;6597;52.218;9.882;2023-05-20T07:45:47;101609.44;;;14.04;80.64
43770;BME280;6597;52.218;9.882;2023-05-20T07:48:13;101610.94;;;14.11;78.56
43770;BME280;6597;52.218;9.882;2023-05-20T07:50:40;101608.06;;;14.17;76.59
43770;BME280;6597;52.218;9.882;2023-05-20T07:53:07;101600.03;;;14.20;76.97
43770;BME280;6597;52.218;9.882;2023-05-20T07:55:35;101603.28;;;14.26;78.45
43770;BME280;6597;52.218;9.882;2023-05-20T07:58:03;101597.69;;;14.36;76.68
43770;BME280;6597;52.218;9.882;2023-05-20T08:00:32;101590.41;;;14.42;76.06
43770;BME280;6597;52.218;9.882;2023-05-20T08:03:02;101598.06;;;14.50;77.22
43770;BME280;6597;52.218;9.882;2023-05-20T08:05:39;101597.88;;;14.54;77.03
43770;BME280;6597;52.218;9.882;2023-05-20T08:08:06;101588.09;;;14.56;76.18
43770;BME280;6597;52.218;9.882;2023-05-20T08:10:45;101582.16;;;14.51;76.62
43770;BME280;6597;52.218;9.882;2023-05-20T08:13:12;101590.00;;;14.53;76.71
43770;BME280;6597;52.218;9.882;2023-05-20T08:15:38;101592.88;;;14.47;75.72
43770;BME280;6597;52.218;9.882;2023-05-20T08:18:05;101599.22;;;14.43;76.50
43770;BME280;6597;52.218;9.882;2023-05-20T08:20:32;101601.13;;;14.38;76.32
43770;BME280;6597;52.218;9.882;2023-05-20T08:22:58;101604.91;;;14.30;76.57
43770;BME280;6597;52.218;9.882;2023-05-20T08:25:25;101598.66;;;14.33;78.32
43770;BME280;6597;52.218;9.882;2023-05-20T08:27:54;101602.88;;;14.39;77.01
43770;BME280;6597;52.218;9.882;2023-05-20T08:30:20;101592.28;;;14.39;77.33
43770;BME280;6597;52.218;9.882;2023-05-20T08:32:47;101594.69;;;14.46;77.10
43770;BME280;6597;52.218;9.882;2023-05-20T08:35:14;101585.72;;;14.50;77.70
43770;BME280;6597;52.218;9.882;2023-05-20T08:37:41;101588.47;;;14.47;77.05
43770;BME280;6597;52.218;9.882;2023-05-20T08:40:09;101588.47;;;14.47;78.61
43770;BME280;6597;52.218;9.882;2023-05-20T08:42:39;101588.66;;;14.43;77.10
43770;BME280;6597;52.218;9.882;2023-05-20T08:45:10;101584.09;;;14.46;77.12
43770;BME280;6597;52.218;9.882;2023-05-20T08:47:38;101585.81;;;14.47;78.04
43770;BME280;6597;52.218;9.882;2023-05-20T08:50:06;101583.06;;;14.50;77.93
43770;BME280;6597;52.218;9.882;2023-05-20T08:52:34;101583.06;;;14.50;77.99
43770;BME280;6597;52.218;9.882;2023-05-20T08:55:04;101583.13;;;14.49;78.03
43770;BME280;6597;52.218;9.882;2023-05-20T08:57:32;101569.31;;;14.41;77.83
43770;BME280;6597;52.218;9.882;2023-05-20T09:00:02;101589.59;;;14.40;77.73
43770;BME280;6597;52.218;9.882;2023-05-20T09:02:36;101577.09;;;14.45;78.14
43770;BME280;6597;52.218;9.882;2023-05-20T09:05:04;101579.50;;;14.51;77.71
43770;BME280;6597;52.218;9.882;2023-05-20T09:07:31;101572.44;;;14.52;78.06
43770;BME280;6597;52.218;9.882;2023-05-20T09:09:58;101575.09;;;14.52;78.37
43770;BME280;6597;52.218;9.882;2023-05-20T09:12:24;101573.41;;;14.49;77.48
43770;BME280;6597;52.218;9.882;2023-05-20T09:14:51;101580.25;;;14.55;78.72
43770;BME280;6597;52.218;9.882;2023-05-20T09:17:17;101579.09;;;14.62;77.80
43770;BME280;6597;52.218;9.882;2023-05-20T09:19:46;101573.09;;;14.80;77.83
43770;BME280;6597;52.218;9.882;2023-05-20T09:22:13;101576.88;;;14.95;76.20
43770;BME280;6597;52.218;9.882;2023-05-20T09:24:40;101581.91;;;15.03;74.78
43770;BME280;6597;52.218;9.882;2023-05-20T09:27:06;101574.31;;;15.15;73.39
43770;BME280;6597;52.218;9.882;2023-05-20T09:29:34;101569.06;;;15.36;73.18
43770;BME280;6597;52.218;9.882;2023-05-20T09:32:01;101567.47;;;15.52;72.09
43770;BME280;6597;52.218;9.882;2023-05-20T09:34:28;101567.53;;;15.72;72.78
43770;BME280;6597;52.218;9.882;2023-05-20T09:36:56;101562.63;;;15.83;69.59
43770;BME280;6597;52.218;9.882;2023-05-20T09:39:27;101567.53;;;16.11;69.03
43770;BME280;6597;52.218;9.882;2023-05-20T09:42:00;101567.56;;;16.30;69.02
43770;BME280;6597;52.218;9.882;2023-05-20T09:44:28;101577.50;;;16.25;68.01
43770;BME280;6597;52.218;9.882;2023-05-20T09:46:55;101561.47;;;16.09;68.35
43770;BME280;6597;52.218;9.882;2023-05-20T09:49:24;101560.75;;;16.06;69.96
43770;BME280;6597;52.218;9.882;2023-05-20T09:51:52;101560.97;;;16.20;70.47
43770;BME280;6597;52.218;9.882;2023-05-20T09:54:21;101561.69;;;16.42;71.12
43770;BME280;6597;52.218;9.882;2023-05-20T09:56:49;101573.31;;;16.59;69.29
43770;BME280;6597;52.218;9.882;2023-05-20T09:59:17;101564.13;;;16.47;68.65
43770;BME280;6597;52.218;9.882;2023-05-20T10:01:46;101565.28;;;16.41;67.63
43770;BME280;6597;52.218;9.882;2023-05-20T10:04:15;101561.41;;;16.30;68.88
43770;BME280;6597;52.218;9.882;2023-05-20T10:07:05;101562.53;;;16.24;68.42
43770;BME280;6597;52.218;9.882;2023-05-20T10:09:48;101560.56;;;16.29;68.75
43770;BME280;6597;52.218;9.882;2023-05-20T10:12:26;101553.41;;;16.31;69.04
43770;BME280;6597;52.218;9.882;2023-05-20T10:15:03;101554.50;;;16.26;68.79
43770;BME280;6597;52.218;9.882;2023-05-20T10:17:39;101559.09;;;16.22;68.67
43770;BME280;6597;52.218;9.882;2023-05-20T10:20:07;101552.88;;;16.23;69.29
43770;BME280;6597;52.218;9.882;2023-05-20T10:22:36;101550.22;;;16.23;69.61
43770;BME280;6597;52.218;9.882;2023-05-20T10:25:06;101551.94;;;16.24;69.06
43770;BME280;6597;52.218;9.882;2023-05-20T10:27:42;101535.25;;;16.22;69.03
43770;BME280;6597;52.218;9.882;2023-05-20T10:30:15;101535.63;;;16.14;68.56
43770;BME280;6597;52.218;9.882;2023-05-20T10:32:48;101545.72;;;16.06;70.85
43770;BME280;6597;52.218;9.882;2023-05-20T10:35:20;101536.34;;;16.18;70.43
43770;BME280;6597;52.218;9.882;2023-05-20T10:37:47;101537.66;;;16.28;69.10
43770;BME280;6597;52.218;9.882;2023-05-20T10:40:18;101536.28;;;16.38;69.33
43770;BME280;6597;52.218;9.882;2023-05-20T10:42:44;101534.47;;;16.58;70.58
43770;BME280;6597;52.218;9.882;2023-05-20T10:45:23;101531.28;;;16.70;71.35
43770;BME280;6597;52.218;9.882;2023-05-20T10:47:53;101529.75;;;16.83;71.24
43770;BME280;6597;52.218;9.882;2023-05-20T10:50:27;101526.06;;;16.86;66.50
43770;BME280;6597;52.218;9.882;2023-05-20T10:53:01;101530.28;;;16.90;68.28
43770;BME280;6597;52.218;9.882;2023-05-20T10:55:35;101526.00;;;16.87;66.45
43770;BME280;6597;52.218;9.882;2023-05-20T10:58:02;101514.59;;;16.68;67.99
43770;BME280;6597;52.218;9.882;2023-05-20T11:00:28;101518.72;;;16.55;68.69
43770;BME280;6597;52.218;9.882;2023-05-20T11:02:55;101511.34;;;16.42;69.25
43770;BME280;6597;52.218;9.882;2023-05-20T11:05:22;101507.47;;;16.49;70.67
43770;BME280;6597;52.218;9.882;2023-05-20T11:07:49;101514.25;;;16.55;71.85
43770;BME280;6597;52.218;9.882;2023-05-20T11:10:16;101510.13;;;16.49;71.65
43770;BME280;6597;52.218;9.882;2023-05-20T11:12:44;101518.16;;;16.48;70.99
43770;BME280;6597;52.218;9.882;2023-05-20T11:15:10;101512.00;;;16.47;69.59
43770;BME280;6597;52.218;9.882;2023-05-20T11:17:37;101513.50;;;16.34;68.69
43770;BME280;6597;52.218;9.882;2023-05-20T11:20:05;101507.56;;;16.29;70.68
43770;BME280;6597;52.218;9.882;2023-05-20T11:22:31;101513.91;;;16.25;70.32
43770;BME280;6597;52.218;9.882;2023-05-20T11:24:58;101507.34;;;16.15;70.04
43770;BME280;6597;52.218;9.882;2023-05-20T11:27:25;101504.63;;;16.16;71.51
43770;BME280;6597;52.218;9.882;2023-05-20T11:29:52;101491.22;;;16.19;70.95
43770;BME280;6597;52.218;9.882;2023-05-20T11:32:19;101495.81;;;16.16;69.71
43770;BME280;6597;52.218;9.882;2023-05-20T11:34:50;101495.94;;;16.13;70.84
43770;BME280;6597;52.218;9.882;2023-05-20T11:37:17;101482.78;;;16.11;70.96
43770;BME280;6597;52.218;9.882;2023-05-20T11:39:44;101475.25;;;16.21;72.06
43770;BME280;6597;52.218;9.882;2023-05-20T11:42:10;101474.19;;;16.25;70.33
43770;BME280;6597;52.218;9.882;2023-05-20T11:44:42;101482.19;;;16.24;70.01
43770;BME280;6597;52.218;9.882;2023-05-20T11:47:10;101469.03;;;16.22;70.73
43770;BME280;6597;52.218;9.882;2023-05-20T11:49:40;101473.75;;;16.15;69.81
43770;BME280;6597;52.218;9.882;2023-05-20T11:52:08;101465.19;;;16.10;70.25
43770;BME280;6597;52.218;9.882;2023-05-20T11:54:35;101474.63;;;16.16;71.12
43770;BME280;6597;52.218;9.882;2023-05-20T11:57:01;101450.22;;;16.28;70.74
43770;BME280;6597;52.218;9.882;2023-05-20T11:59:28;101452.88;;;16.28;69.86
43770;BME280;6597;52.218;9.882;2023-05-20T12:01:55;101463.31;;;16.31;71.28
43770;BME280;6597;52.218;9.882;2023-05-20T12:04:23;101466.91;;;16.30;70.80
43770;BME280;6597;52.218;9.882;2023-05-20T12:06:49;101457.72;;;16.18;70.72
43770;BME280;6597;52.218;9.882;2023-05-20T12:09:17;101455.50;;;16.09;72.28
43770;BME280;6597;52.218;9.882;2023-05-20T12:11:44;101463.81;;;16.02;71.23
43770;BME280;6597;52.218;9.882;2023-05-20T12:14:10;101452.44;;;16.00;73.02
43770;BME280;6597;52.218;9.882;2023-05-20T12:16:37;101444.66;;;15.97;71.35
43770;BME280;6597;52.218;9.882;2023-05-20T12:19:04;101454.56;;;15.92;72.92
43770;BME280;6597;52.218;9.882;2023-05-20T12:21:32;101452.00;;;15.90;73.61
43770;BME280;6597;52.218;9.882;2023-05-20T12:23:59;101459.06;;;15.90;72.73
43770;BME280;6597;52.218;9.882;2023-05-20T12:26:27;101460.94;;;15.87;73.47
43770;BME280;6597;52.218;9.882;2023-05-20T12:28:55;101450.28;;;15.89;73.79
43770;BME280;6597;52.218;9.882;2023-05-20T12:31:21;101437.09;;;15.87;71.67
43770;BME280;6597;52.218;9.882;2023-05-20T12:33:48;101437.88;;;15.90;72.35
43770;BME280;6597;52.218;9.882;2023-05-20T12:36:14;101435.84;;;15.96;72.26
43770;BME280;6597;52.218;9.882;2023-05-20T12:38:42;101433.13;;;15.98;71.78
43770;BME280;6597;52.218;9.882;2023-05-20T12:41:09;101422.22;;;16.04;70.82
43770;BME280;6597;52.218;9.882;2023-05-20T12:43:36;101426.31;;;16.11;71.20
43770;BME280;6597;52.218;9.882;2023-05-20T12:46:03;101428.88;;;16.12;70.80
43770;BME280;6597;52.218;9.882;2023-05-20T12:48:30;101424.28;;;16.16;73.05
43770;BME280;6597;52.218;9.882;2023-05-20T12:50:57;101427.66;;;16.19;73.31
43770;BME280;6597;52.218;9.882;2023-05-20T12:53:23;101423.28;;;16.18;71.54
43770;BME280;6597;52.218;9.882;2023-05-20T12:55:51;101431.44;;;16.14;70.66
43770;BME280;6597;52.218;9.882;2023-05-20T12:58:18;101423.09;;;16.04;71.93
43770;BME280;6597;52.218;9.882;2023-05-20T13:00:44;101414.66;;;15.96;72.61
43770;BME280;6597;52.218;9.882;2023-05-20T13:03:10;101415.66;;;15.94;73.04